sensor_id;sensor_type;location;lat;lon;timestamp;temperature;humidity
10583;DHT22;33679;51.218;6.786;2024-02-26T00:01:34;11.30;99.90
10583;DHT22;33679;51.218;6.786;2024-02-26T00:04:07;11.40;99.90
10583;DHT22;33679;51.218;6.786;2024-02-26T00:06:39;11.40;99.90
10583;DHT22;33679;51.218;6.786;2024-02-26T00:09:12;11.40;99.90
10583;DHT22;33679;51.218;6.786;2024-02-26T00:11:46;11.40;99.90
10583;DHT22;33679;51.218;6.786;2024-02-26T00:14:18;11.40;99.90
10583;DHT22;33679;51.218;6.786;2024-02-26T00:16:51;11.50;99.90
10583;DHT22;33679;51.218;6.786;2024-02-26T00:19:23;11.50;99.90
10583;DHT22;33679;51.218;6.786;2024-02-26T00:21:55;11.50;99.90
10583;DHT22;33679;51.218;6.786;2024-02-26T00:24:28;11.50;99.90
10583;DHT22;33679;51.218;6.786;2024-02-26T00:27:01;11.50;99.90
10583;DHT22;33679;51.218;6.786;2024-02-26T00:29:34;11.50;99.90
10583;DHT22;33679;51.218;6.786;2024-02-26T00:32:06;11.60;99.90
10583;DHT22;33679;51.218;6.786;2024-02-26T00:34:39;11.60;99.90
10583;DHT22;33679;51.218;6.786;2024-02-26T00:37:14;11.60;99.90
10583;DHT22;33679;51.218;6.786;2024-02-26T00:39:46;11.60;99.90
10583;DHT22;33679;51.218;6.786;2024-02-26T00:42:20;11.60;99.90
10583;DHT22;33679;51.218;6.786;2024-02-26T00:44:53;11.60;99.90
10583;DHT22;33679;51.218;6.786;2024-02-26T00:47:26;11.60;99.90
10583;DHT22;33679;51.218;6.786;2024-02-26T00:49:59;11.60;99.90
10583;DHT22;33679;51.218;6.786;2024-02-26T00:52:31;11.60;99.90
10583;DHT22;33679;51.218;6.786;2024-02-26T00:55:06;11.60;99.90
10583;DHT22;33679;51.218;6.786;2024-02-26T00:57:40;11.60;99.90
10583;DHT22;33679;51.218;6.786;2024-02-26T01:00:15;11.60;99.90
10583;DHT22;33679;51.218;6.786;2024-02-26T01:02:49;11.60;99.90
10583;DHT22;33679;51.218;6.786;2024-02-26T01:05:21;11.70;99.90
10583;DHT22;33679;51.218;6.786;2024-02-26T01:07:54;11.70;99.90
10583;DHT22;33679;51.218;6.786;2024-02-26T01:10:26;11.70;99.90
10583;DHT22;33679;51.218;6.786;2024-02-26T01:13:00;11.60;99.90
10583;DHT22;33679;51.218;6.786;2024-02-26T01:15:32;11.60;99.90
10583;DHT22;33679;51.218;6.786;2024-02-26T01:18:05;11.60;99.90
10583;DHT22;33679;51.218;6.786;2024-02-26T01:20:37;11.60;99.90
10583;DHT22;33679;51.218;6.786;2024-02-26T01:23:09;11.60;99.90
10583;DHT22;33679;51.218;6.786;2024-02-26T01:25:44;11.50;99.90
10583;DHT22;33679;51.218;6.786;2024-02-26T01:28:17;11.50;99.90
10583;DHT22;33679;51.218;6.786;2024-02-26T01:30:50;11.50;99.90
10583;DHT22;33679;51.218;6.786;2024-02-26T01:33:26;11.50;99.90
10583;DHT22;33679;51.218;6.786;2024-02-26T01:35:58;11.50;99.90
10583;DHT22;33679;51.218;6.786;2024-02-26T01:38:32;11.40;99.90
10583;DHT22;33679;51.218;6.786;2024-02-26T01:41:05;11.50;99.90
10583;DHT22;33679;51.218;6.786;2024-02-26T01:43:38;11.40;99.90
10583;DHT22;33679;51.218;6.786;2024-02-26T01:46:13;11.40;99.90
10583;DHT22;33679;51.218;6.786;2024-02-26T01:48:47;11.40;99.90
10583;DHT22;33679;51.218;6.786;2024-02-26T01:51:22;11.40;99.90
10583;DHT22;33679;51.218;6.786;2024-02-26T01:53:55;11.30;99.90
10583;DHT22;33679;51.218;6.786;2024-02-26T01:56:28;11.30;99.90
10583;DHT22;33679;51.218;6.786;2024-02-26T01:59:04;11.20;99.90
10583;DHT22;33679;51.218;6.786;2024-02-26T02:01:39;11.20;99.90
10583;DHT22;33679;51.218;6.786;2024-02-26T02:04:16;11.20;99.90
10583;DHT22;33679;51.218;6.786;2024-02-26T02:06:49;11.10;99.90
10583;DHT22;33679;51.218;6.786;2024-02-26T02:09:23;11.10;99.90
10583;DHT22;33679;51.218;6.786;2024-02-26T02:11:56;11.00;99.90
10583;DHT22;33679;51.218;6.786;2024-02-26T02:14:30;10.90;99.90
10583;DHT22;33679;51.218;6.786;2024-02-26T02:17:02;11.00;99.90
10583;DHT22;33679;51.218;6.786;2024-02-26T02:19:35;11.00;99.90
10583;DHT22;33679;51.218;6.786;2024-02-26T02:22:09;11.00;99.90
10583;DHT22;33679;51.218;6.786;2024-02-26T02:24:42;10.90;99.90
10583;DHT22;33679;51.218;6.786;2024-02-26T02:27:14;10.90;99.90
10583;DHT22;33679;51.218;6.786;2024-02-26T02:29:48;10.80;99.90
10583;DHT22;33679;51.218;6.786;2024-02-26T02:32:21;10.80;99.90
10583;DHT22;33679;51.218;6.786;2024-02-26T02:34:55;10.70;99.90
10583;DHT22;33679;51.218;6.786;2024-02-26T02:37:28;10.70;99.90
10583;DHT22;33679;51.218;6.786;2024-02-26T02:40:01;10.60;99.90
10583;DHT22;33679;51.218;6.786;2024-02-26T02:42:34;10.60;99.90
10583;DHT22;33679;51.218;6.786;2024-02-26T02:45:06;10.50;99.90
10583;DHT22;33679;51.218;6.786;2024-02-26T02:47:39;10.50;99.90
10583;DHT22;33679;51.218;6.786;2024-02-26T02:50:12;10.50;99.90
10583;DHT22;33679;51.218;6.786;2024-02-26T02:52:46;10.50;99.90
10583;DHT22;33679;51.218;6.786;2024-02-26T02:55:19;10.40;99.90
10583;DHT22;33679;51.218;6.786;2024-02-26T02:57:51;10.40;99.90
10583;DHT22;33679;51.218;6.786;2024-02-26T03:00:25;10.40;99.90
10583;DHT22;33679;51.218;6.786;2024-02-26T03:02:58;10.30;99.90
10583;DHT22;33679;51.218;6.786;2024-02-26T03:05:30;10.30;99.90
10583;DHT22;33679;51.218;6.786;2024-02-26T03:08:05;10.30;99.90
10583;DHT22;33679;51.218;6.786;2024-02-26T03:10:37;10.30;99.90
10583;DHT22;33679;51.218;6.786;2024-02-26T03:13:10;10.20;99.90
10583;DHT22;33679;51.218;6.786;2024-02-26T03:15:42;10.20;99.90
10583;DHT22;33679;51.218;6.786;2024-02-26T03:18:14;10.20;99.90
10583;DHT22;33679;51.218;6.786;2024-02-26T03:20:49;10.20;99.90
10583;DHT22;33679;51.218;6.786;2024-02-26T03:23:23;10.20;99.90
10583;DHT22;33679;51.218;6.786;2024-02-26T03:25:55;10.10;99.90
10583;DHT22;33679;51.218;6.786;2024-02-26T03:28:27;10.10;99.90
10583;DHT22;33679;51.218;6.786;2024-02-26T03:31:00;10.10;99.90
10583;DHT22;33679;51.218;6.786;2024-02-26T03:33:37;10.10;99.90
10583;DHT22;33679;51.218;6.786;2024-02-26T03:36:09;10.00;99.90
10583;DHT22;33679;51.218;6.786;2024-02-26T03:38:43;9.90;99.90
10583;DHT22;33679;51.218;6.786;2024-02-26T03:41:15;9.90;99.90
10583;DHT22;33679;51.218;6.786;2024-02-26T03:43:48;9.90;99.90
10583;DHT22;33679;51.218;6.786;2024-02-26T03:46:21;9.80;99.90
10583;DHT22;33679;51.218;6.786;2024-02-26T03:48:53;9.80;99.90
10583;DHT22;33679;51.218;6.786;2024-02-26T03:51:26;9.90;99.90
10583;DHT22;33679;51.218;6.786;2024-02-26T03:54:06;9.90;99.90
10583;DHT22;33679;51.218;6.786;2024-02-26T03:56:44;9.90;99.90
10583;DHT22;33679;51.218;6.786;2024-02-26T03:59:16;9.80;99.90
10583;DHT22;33679;51.218;6.786;2024-02-26T04:01:51;9.80;99.90
10583;DHT22;33679;51.218;6.786;2024-02-26T04:04:27;9.90;99.90
10583;DHT22;33679;51.218;6.786;2024-02-26T04:06:59;9.80;99.90
10583;DHT22;33679;51.218;6.786;2024-02-26T04:09:33;9.90;99.90
10583;DHT22;33679;51.218;6.786;2024-02-26T04:12:06;9.90;99.90
10583;DHT22;33679;51.218;6.786;2024-02-26T04:14:44;9.80;99.90
10583;DHT22;33679;51.218;6.786;2024-02-26T04:17:16;9.80;99.90
10583;DHT22;33679;51.218;6.786;2024-02-26T04:19:49;9.80;99.90
10583;DHT22;33679;51.218;6.786;2024-02-26T04:22:21;9.70;99.90
10583;DHT22;33679;51.218;6.786;2024-02-26T04:24:55;9.70;99.90
10583;DHT22;33679;51.218;6.786;2024-02-26T04:27:28;9.60;99.90
10583;DHT22;33679;51.218;6.786;2024-02-26T04:30:00;9.50;99.90
10583;DHT22;33679;51.218;6.786;2024-02-26T04:32:33;9.50;99.90
10583;DHT22;33679;51.218;6.786;2024-02-26T04:35:06;9.50;99.90
10583;DHT22;33679;51.218;6.786;2024-02-26T04:37:40;9.50;99.90
10583;DHT22;33679;51.218;6.786;2024-02-26T04:40:14;9.50;99.90
10583;DHT22;33679;51.218;6.786;2024-02-26T04:42:47;9.50;99.90
10583;DHT22;33679;51.218;6.786;2024-02-26T04:45:19;9.50;99.90
10583;DHT22;33679;51.218;6.786;2024-02-26T04:47:53;9.50;99.90
10583;DHT22;33679;51.218;6.786;2024-02-26T04:50:27;9.50;99.90
10583;DHT22;33679;51.218;6.786;2024-02-26T04:52:59;9.50;99.90
10583;DHT22;33679;51.218;6.786;2024-02-26T04:55:35;9.40;99.90
10583;DHT22;33679;51.218;6.786;2024-02-26T04:58:08;9.40;99.90
10583;DHT22;33679;51.218;6.786;2024-02-26T05:00:41;9.30;99.90
10583;DHT22;33679;51.218;6.786;2024-02-26T05:03:14;9.30;99.90
10583;DHT22;33679;51.218;6.786;2024-02-26T05:05:47;9.40;99.90
10583;DHT22;33679;51.218;6.786;2024-02-26T05:08:19;9.30;99.90
10583;DHT22;33679;51.218;6.786;2024-02-26T05:10:53;9.20;99.90
10583;DHT22;33679;51.218;6.786;2024-02-26T05:13:25;9.20;99.90
10583;DHT22;33679;51.218;6.786;2024-02-26T05:15:58;9.20;99.90
10583;DHT22;33679;51.218;6.786;2024-02-26T05:18:30;9.20;99.90
10583;DHT22;33679;51.218;6.786;2024-02-26T05:21:03;9.20;99.90
10583;DHT22;33679;51.218;6.786;2024-02-26T05:23:36;9.10;99.90
10583;DHT22;33679;51.218;6.786;2024-02-26T05:26:10;9.10;99.90
10583;DHT22;33679;51.218;6.786;2024-02-26T05:28:42;9.10;99.90
10583;DHT22;33679;51.218;6.786;2024-02-26T05:31:15;9.10;99.90
10583;DHT22;33679;51.218;6.786;2024-02-26T05:33:48;9.10;99.90
10583;DHT22;33679;51.218;6.786;2024-02-26T05:36:21;9.10;99.90
10583;DHT22;33679;51.218;6.786;2024-02-26T05:38:55;9.10;99.90
10583;DHT22;33679;51.218;6.786;2024-02-26T05:41:30;9.10;99.90
10583;DHT22;33679;51.218;6.786;2024-02-26T05:44:02;9.20;99.90
10583;DHT22;33679;51.218;6.786;2024-02-26T05:46:35;9.20;99.90
10583;DHT22;33679;51.218;6.786;2024-02-26T05:49:07;9.20;99.90
10583;DHT22;33679;51.218;6.786;2024-02-26T05:51:40;9.20;99.90
10583;DHT22;33679;51.218;6.786;2024-02-26T05:54:12;9.10;99.90
10583;DHT22;33679;51.218;6.786;2024-02-26T05:56:46;9.10;99.90
10583;DHT22;33679;51.218;6.786;2024-02-26T05:59:21;9.10;99.90
10583;DHT22;33679;51.218;6.786;2024-02-26T06:01:54;9.00;99.90
10583;DHT22;33679;51.218;6.786;2024-02-26T06:04:26;9.00;99.90
10583;DHT22;33679;51.218;6.786;2024-02-26T06:06:59;8.90;99.90
10583;DHT22;33679;51.218;6.786;2024-02-26T06:09:31;8.90;99.90
10583;DHT22;33679;51.218;6.786;2024-02-26T06:12:06;8.90;99.90
10583;DHT22;33679;51.218;6.786;2024-02-26T06:14:39;8.90;99.90
10583;DHT22;33679;51.218;6.786;2024-02-26T06:17:12;8.90;99.90
10583;DHT22;33679;51.218;6.786;2024-02-26T06:19:44;8.90;99.90
10583;DHT22;33679;51.218;6.786;2024-02-26T06:22:20;8.90;99.90
10583;DHT22;33679;51.218;6.786;2024-02-26T06:24:53;8.90;99.90
10583;DHT22;33679;51.218;6.786;2024-02-26T06:27:27;8.90;99.90
10583;DHT22;33679;51.218;6.786;2024-02-26T06:29:59;8.80;99.90
10583;DHT22;33679;51.218;6.786;2024-02-26T06:32:31;8.80;99.90
10583;DHT22;33679;51.218;6.786;2024-02-26T06:35:05;8.90;99.90
10583;DHT22;33679;51.218;6.786;2024-02-26T06:37:39;8.90;99.90
10583;DHT22;33679;51.218;6.786;2024-02-26T06:40:13;8.90;99.90
10583;DHT22;33679;51.218;6.786;2024-02-26T06:42:47;8.90;99.90
10583;DHT22;33679;51.218;6.786;2024-02-26T06:45:21;9.00;99.90
10583;DHT22;33679;51.218;6.786;2024-02-26T06:47:53;9.00;99.90
10583;DHT22;33679;51.218;6.786;2024-02-26T06:50:26;9.00;99.90
10583;DHT22;33679;51.218;6.786;2024-02-26T06:52:59;9.00;99.90
10583;DHT22;33679;51.218;6.786;2024-02-26T06:55:31;9.00;99.90
10583;DHT22;33679;51.218;6.786;2024-02-26T06:58:05;9.10;99.90
10583;DHT22;33679;51.218;6.786;2024-02-26T07:00:37;9.00;99.90
10583;DHT22;33679;51.218;6.786;2024-02-26T07:03:10;9.00;99.90
10583;DHT22;33679;51.218;6.786;2024-02-26T07:05:42;9.00;99.90
10583;DHT22;33679;51.218;6.786;2024-02-26T07:08:18;8.90;99.90
10583;DHT22;33679;51.218;6.786;2024-02-26T07:10:50;8.90;99.90
10583;DHT22;33679;51.218;6.786;2024-02-26T07:13:24;8.90;99.90
10583;DHT22;33679;51.218;6.786;2024-02-26T07:15:56;9.00;99.90
10583;DHT22;33679;51.218;6.786;2024-02-26T07:18:30;9.00;99.90
10583;DHT22;33679;51.218;6.786;2024-02-26T07:21:03;9.00;99.90
10583;DHT22;33679;51.218;6.786;2024-02-26T07:23:35;8.90;99.90
10583;DHT22;33679;51.218;6.786;2024-02-26T07:26:11;8.90;99.90
10583;DHT22;33679;51.218;6.786;2024-02-26T07:28:45;8.90;99.90
10583;DHT22;33679;51.218;6.786;2024-02-26T07:31:18;9.00;99.90
10583;DHT22;33679;51.218;6.786;2024-02-26T07:33:52;9.10;99.90
10583;DHT22;33679;51.218;6.786;2024-02-26T07:36:27;9.10;99.90
10583;DHT22;33679;51.218;6.786;2024-02-26T07:38:59;9.20;99.90
10583;DHT22;33679;51.218;6.786;2024-02-26T07:41:32;9.20;99.90
10583;DHT22;33679;51.218;6.786;2024-02-26T07:44:07;9.10;99.90
10583;DHT22;33679;51.218;6.786;2024-02-26T07:46:42;9.20;99.90
10583;DHT22;33679;51.218;6.786;2024-02-26T07:49:15;9.20;99.90
10583;DHT22;33679;51.218;6.786;2024-02-26T07:51:47;9.30;99.90
10583;DHT22;33679;51.218;6.786;2024-02-26T07:54:20;9.30;99.90
10583;DHT22;33679;51.218;6.786;2024-02-26T07:56:52;9.30;99.90
10583;DHT22;33679;51.218;6.786;2024-02-26T07:59:31;9.40;99.90
10583;DHT22;33679;51.218;6.786;2024-02-26T08:02:05;9.40;99.90
10583;DHT22;33679;51.218;6.786;2024-02-26T08:04:38;9.40;99.90
10583;DHT22;33679;51.218;6.786;2024-02-26T08:07:13;9.50;99.90
10583;DHT22;33679;51.218;6.786;2024-02-26T08:09:46;9.50;99.90
10583;DHT22;33679;51.218;6.786;2024-02-26T08:12:19;9.60;99.90
10583;DHT22;33679;51.218;6.786;2024-02-26T08:14:53;9.60;99.90
10583;DHT22;33679;51.218;6.786;2024-02-26T08:17:26;9.70;99.90
10583;DHT22;33679;51.218;6.786;2024-02-26T08:19:59;9.80;99.90
10583;DHT22;33679;51.218;6.786;2024-02-26T08:22:31;9.70;99.90
10583;DHT22;33679;51.218;6.786;2024-02-26T08:25:05;9.70;99.90
10583;DHT22;33679;51.218;6.786;2024-02-26T08:27:40;9.70;99.90
10583;DHT22;33679;51.218;6.786;2024-02-26T08:30:15;9.60;99.90
10583;DHT22;33679;51.218;6.786;2024-02-26T08:32:48;9.50;99.90
10583;DHT22;33679;51.218;6.786;2024-02-26T08:35:21;9.60;99.90
10583;DHT22;33679;51.218;6.786;2024-02-26T08:37:53;9.60;99.90
10583;DHT22;33679;51.218;6.786;2024-02-26T08:40:26;9.60;99.90
10583;DHT22;33679;51.218;6.786;2024-02-26T08:43:01;9.70;99.90
10583;DHT22;33679;51.218;6.786;2024-02-26T08:45:35;9.80;99.90
10583;DHT22;33679;51.218;6.786;2024-02-26T08:48:08;9.80;99.90
10583;DHT22;33679;51.218;6.786;2024-02-26T08:50:41;9.80;99.90
10583;DHT22;33679;51.218;6.786;2024-02-26T08:53:19;9.90;99.90
10583;DHT22;33679;51.218;6.786;2024-02-26T08:55:52;9.90;99.90
10583;DHT22;33679;51.218;6.786;2024-02-26T08:58:24;9.90;99.90
10583;DHT22;33679;51.218;6.786;2024-02-26T09:01:01;9.90;99.90
10583;DHT22;33679;51.218;6.786;2024-02-26T09:03:33;10.00;99.90
10583;DHT22;33679;51.218;6.786;2024-02-26T09:06:06;10.00;99.90
10583;DHT22;33679;51.218;6.786;2024-02-26T09:08:40;10.00;99.90
10583;DHT22;33679;51.218;6.786;2024-02-26T09:11:13;10.00;99.90
10583;DHT22;33679;51.218;6.786;2024-02-26T09:13:46;9.90;99.90
10583;DHT22;33679;51.218;6.786;2024-02-26T09:16:20;9.80;99.90
10583;DHT22;33679;51.218;6.786;2024-02-26T09:18:53;9.80;99.90
10583;DHT22;33679;51.218;6.786;2024-02-26T09:21:25;9.80;99.90
10583;DHT22;33679;51.218;6.786;2024-02-26T09:24:00;9.80;99.90
10583;DHT22;33679;51.218;6.786;2024-02-26T09:26:33;9.70;99.90
10583;DHT22;33679;51.218;6.786;2024-02-26T09:29:05;9.70;99.90
10583;DHT22;33679;51.218;6.786;2024-02-26T09:31:40;9.70;99.90
10583;DHT22;33679;51.218;6.786;2024-02-26T09:34:14;9.60;99.90
10583;DHT22;33679;51.218;6.786;2024-02-26T09:36:48;9.60;99.90
10583;DHT22;33679;51.218;6.786;2024-02-26T09:39:22;9.60;99.90
10583;DHT22;33679;51.218;6.786;2024-02-26T09:41:56;9.60;99.90
10583;DHT22;33679;51.218;6.786;2024-02-26T09:44:34;9.60;99.90
10583;DHT22;33679;51.218;6.786;2024-02-26T09:47:12;9.60;99.90
10583;DHT22;33679;51.218;6.786;2024-02-26T09:49:52;9.50;99.90
10583;DHT22;33679;51.218;6.786;2024-02-26T09:52:28;9.50;99.90
10583;DHT22;33679;51.218;6.786;2024-02-26T09:55:05;9.50;99.90
10583;DHT22;33679;51.218;6.786;2024-02-26T09:57:44;9.60;99.90
10583;DHT22;33679;51.218;6.786;2024-02-26T10:00:18;9.60;99.90
10583;DHT22;33679;51.218;6.786;2024-02-26T10:02:55;9.60;99.90
10583;DHT22;33679;51.218;6.786;2024-02-26T10:05:29;9.50;99.90
10583;DHT22;33679;51.218;6.786;2024-02-26T10:08:02;9.50;99.90
10583;DHT22;33679;51.218;6.786;2024-02-26T10:10:39;9.60;99.90
10583;DHT22;33679;51.218;6.786;2024-02-26T10:13:12;9.60;99.90
10583;DHT22;33679;51.218;6.786;2024-02-26T10:15:48;9.70;99.90
10583;DHT22;33679;51.218;6.786;2024-02-26T10:18:27;9.80;99.90
10583;DHT22;33679;51.218;6.786;2024-02-26T10:21:11;9.80;99.90
10583;DHT22;33679;51.218;6.786;2024-02-26T10:24:24;9.80;99.90
10583;DHT22;33679;51.218;6.786;2024-02-26T10:26:59;9.80;99.90
10583;DHT22;33679;51.218;6.786;2024-02-26T10:29:32;9.80;99.90
10583;DHT22;33679;51.218;6.786;2024-02-26T10:32:07;9.80;99.90
10583;DHT22;33679;51.218;6.786;2024-02-26T10:34:44;9.90;99.90
10583;DHT22;33679;51.218;6.786;2024-02-26T10:37:17;9.90;99.90
10583;DHT22;33679;51.218;6.786;2024-02-26T10:39:50;9.90;99.90
10583;DHT22;33679;51.218;6.786;2024-02-26T10:42:23;9.90;99.90
10583;DHT22;33679;51.218;6.786;2024-02-26T10:45:01;9.90;99.90
10583;DHT22;33679;51.218;6.786;2024-02-26T10:47:48;10.00;99.90
10583;DHT22;33679;51.218;6.786;2024-02-26T10:50:23;9.90;99.90
10583;DHT22;33679;51.218;6.786;2024-02-26T10:52:58;9.90;99.90
10583;DHT22;33679;51.218;6.786;2024-02-26T10:55:33;9.90;99.90
10583;DHT22;33679;51.218;6.786;2024-02-26T10:58:09;9.80;99.90
10583;DHT22;33679;51.218;6.786;2024-02-26T11:00:49;9.70;99.90
10583;DHT22;33679;51.218;6.786;2024-02-26T11:03:28;9.80;99.90
10583;DHT22;33679;51.218;6.786;2024-02-26T11:06:12;9.80;99.90
10583;DHT22;33679;51.218;6.786;2024-02-26T11:08:48;9.70;99.90
10583;DHT22;33679;51.218;6.786;2024-02-26T11:11:21;9.80;99.90
10583;DHT22;33679;51.218;6.786;2024-02-26T11:13:55;9.90;99.90
10583;DHT22;33679;51.218;6.786;2024-02-26T11:16:46;10.00;99.90
10583;DHT22;33679;51.218;6.786;2024-02-26T11:19:24;10.00;99.90
10583;DHT22;33679;51.218;6.786;2024-02-26T11:22:00;10.00;99.90
10583;DHT22;33679;51.218;6.786;2024-02-26T11:24:33;10.10;99.90
10583;DHT22;33679;51.218;6.786;2024-02-26T11:27:13;10.10;99.90
10583;DHT22;33679;51.218;6.786;2024-02-26T11:29:49;10.20;99.90
10583;DHT22;33679;51.218;6.786;2024-02-26T11:32:28;10.20;99.90
10583;DHT22;33679;51.218;6.786;2024-02-26T11:35:01;10.30;99.90
10583;DHT22;33679;51.218;6.786;2024-02-26T11:37:35;10.30;99.90
10583;DHT22;33679;51.218;6.786;2024-02-26T11:40:13;10.30;99.90
10583;DHT22;33679;51.218;6.786;2024-02-26T11:42:53;10.10;99.90
10583;DHT22;33679;51.218;6.786;2024-02-26T11:45:56;10.20;99.90
10583;DHT22;33679;51.218;6.786;2024-02-26T11:48:32;10.30;99.90
10583;DHT22;33679;51.218;6.786;2024-02-26T11:51:05;10.20;99.90
10583;DHT22;33679;51.218;6.786;2024-02-26T11:53:46;10.20;99.90
10583;DHT22;33679;51.218;6.786;2024-02-26T11:56:21;10.20;99.90
10583;DHT22;33679;51.218;6.786;2024-02-26T11:58:57;10.20;99.90
10583;DHT22;33679;51.218;6.786;2024-02-26T12:01:41;10.20;99.90
10583;DHT22;33679;51.218;6.786;2024-02-26T12:04:19;10.10;99.90
10583;DHT22;33679;51.218;6.786;2024-02-26T12:06:55;10.10;99.90
10583;DHT22;33679;51.218;6.786;2024-02-26T12:09:36;10.20;99.90
10583;DHT22;33679;51.218;6.786;2024-02-26T12:12:18;10.30;99.90
10583;DHT22;33679;51.218;6.786;2024-02-26T12:14:52;10.20;99.90
10583;DHT22;33679;51.218;6.786;2024-02-26T12:17:31;10.10;99.90
10583;DHT22;33679;51.218;6.786;2024-02-26T12:20:08;10.20;99.90
10583;DHT22;33679;51.218;6.786;2024-02-26T12:22:45;10.20;99.90
10583;DHT22;33679;51.218;6.786;2024-02-26T12:25:25;10.10;99.90
10583;DHT22;33679;51.218;6.786;2024-02-26T12:27:58;10.00;99.90
10583;DHT22;33679;51.218;6.786;2024-02-26T12:30:35;10.00;99.90
10583;DHT22;33679;51.218;6.786;2024-02-26T12:33:08;10.00;99.90
10583;DHT22;33679;51.218;6.786;2024-02-26T12:35:44;9.90;99.90
10583;DHT22;33679;51.218;6.786;2024-02-26T12:38:20;10.00;99.90
10583;DHT22;33679;51.218;6.786;2024-02-26T12:40:57;10.00;99.90
10583;DHT22;33679;51.218;6.786;2024-02-26T12:43:31;10.10;99.90
10583;DHT22;33679;51.218;6.786;2024-02-26T12:46:04;10.10;99.90
10583;DHT22;33679;51.218;6.786;2024-02-26T12:48:37;10.10;99.90
10583;DHT22;33679;51.218;6.786;2024-02-26T12:51:11;10.20;99.90
10583;DHT22;33679;51.218;6.786;2024-02-26T12:53:45;10.20;99.90
10583;DHT22;33679;51.218;6.786;2024-02-26T12:56:26;10.20;99.90
10583;DHT22;33679;51.218;6.786;2024-02-26T12:59:13;10.30;99.90
10583;DHT22;33679;51.218;6.786;2024-02-26T13:01:46;10.20;99.90
10583;DHT22;33679;51.218;6.786;2024-02-26T13:04:21;10.20;99.90
10583;DHT22;33679;51.218;6.786;2024-02-26T13:06:54;10.30;99.90
10583;DHT22;33679;51.218;6.786;2024-02-26T13:09:27;10.30;99.90
10583;DHT22;33679;51.218;6.786;2024-02-26T13:12:04;10.30;99.90
10583;DHT22;33679;51.218;6.786;2024-02-26T13:14:39;10.30;99.90
10583;DHT22;33679;51.218;6.786;2024-02-26T13:17:14;10.30;99.90
10583;DHT22;33679;51.218;6.786;2024-02-26T13:19:54;10.20;99.90
10583;DHT22;33679;51.218;6.786;2024-02-26T13:22:27;10.20;99.90
10583;DHT22;33679;51.218;6.786;2024-02-26T13:25:10;10.20;99.90
10583;DHT22;33679;51.218;6.786;2024-02-26T13:27:45;10.10;99.90
10583;DHT22;33679;51.218;6.786;2024-02-26T13:30:17;10.10;99.90
10583;DHT22;33679;51.218;6.786;2024-02-26T13:32:51;10.20;99.90
10583;DHT22;33679;51.218;6.786;2024-02-26T13:35:23;10.20;99.90
10583;DHT22;33679;51.218;6.786;2024-02-26T13:37:56;10.30;99.90
10583;DHT22;33679;51.218;6.786;2024-02-26T13:40:28;10.30;99.90
10583;DHT22;33679;51.218;6.786;2024-02-26T13:43:06;10.30;99.90
10583;DHT22;33679;51.218;6.786;2024-02-26T13:45:38;10.30;99.90
10583;DHT22;33679;51.218;6.786;2024-02-26T13:48:13;10.40;99.90
10583;DHT22;33679;51.218;6.786;2024-02-26T13:50:46;10.40;99.90
10583;DHT22;33679;51.218;6.786;2024-02-26T13:53:22;10.40;99.90
10583;DHT22;33679;51.218;6.786;2024-02-26T13:55:55;10.40;99.90
10583;DHT22;33679;51.218;6.786;2024-02-26T13:58:31;10.30;99.90
10583;DHT22;33679;51.218;6.786;2024-02-26T14:01:05;10.40;99.90
10583;DHT22;33679;51.218;6.786;2024-02-26T14:03:38;10.40;99.90
10583;DHT22;33679;51.218;6.786;2024-02-26T14:06:12;10.40;99.90
10583;DHT22;33679;51.218;6.786;2024-02-26T14:08:45;10.40;99.90
10583;DHT22;33679;51.218;6.786;2024-02-26T14:11:18;10.50;99.90
10583;DHT22;33679;51.218;6.786;2024-02-26T14:13:53;10.50;99.90
10583;DHT22;33679;51.218;6.786;2024-02-26T14:16:26;10.60;99.90
10583;DHT22;33679;51.218;6.786;2024-02-26T14:19:00;10.60;99.90
10583;DHT22;33679;51.218;6.786;2024-02-26T14:21:35;10.70;99.90
10583;DHT22;33679;51.218;6.786;2024-02-26T14:24:08;10.70;99.90
10583;DHT22;33679;51.218;6.786;2024-02-26T14:26:41;10.70;99.90
10583;DHT22;33679;51.218;6.786;2024-02-26T14:29:15;10.80;99.90
10583;DHT22;33679;51.218;6.786;2024-02-26T14:31:47;10.90;99.90
10583;DHT22;33679;51.218;6.786;2024-02-26T14:34:20;10.90;99.90
10583;DHT22;33679;51.218;6.786;2024-02-26T14:36:56;10.90;99.90
10583;DHT22;33679;51.218;6.786;2024-02-26T14:39:29;10.90;99.90
10583;DHT22;33679;51.218;6.786;2024-02-26T14:42:02;10.90;99.90
10583;DHT22;33679;51.218;6.786;2024-02-26T14:44:40;10.90;99.90
10583;DHT22;33679;51.218;6.786;2024-02-26T14:47:14;10.90;99.90
10583;DHT22;33679;51.218;6.786;2024-02-26T14:49:47;10.80;99.90
10583;DHT22;33679;51.218;6.786;2024-02-26T14:52:21;10.80;99.90
10583;DHT22;33679;51.218;6.786;2024-02-26T14:54:54;10.80;99.90
10583;DHT22;33679;51.218;6.786;2024-02-26T14:57:26;10.70;99.90
10583;DHT22;33679;51.218;6.786;2024-02-26T15:00:02;10.70;99.90
10583;DHT22;33679;51.218;6.786;2024-02-26T15:02:36;10.70;99.90
10583;DHT22;33679;51.218;6.786;2024-02-26T15:05:11;10.70;99.90
10583;DHT22;33679;51.218;6.786;2024-02-26T15:07:44;10.70;99.90
10583;DHT22;33679;51.218;6.786;2024-02-26T15:10:19;10.70;99.90
10583;DHT22;33679;51.218;6.786;2024-02-26T15:12:52;10.70;99.90
10583;DHT22;33679;51.218;6.786;2024-02-26T15:15:27;10.70;99.90
10583;DHT22;33679;51.218;6.786;2024-02-26T15:18:03;10.70;99.90
10583;DHT22;33679;51.218;6.786;2024-02-26T15:20:35;10.70;99.90
10583;DHT22;33679;51.218;6.786;2024-02-26T15:23:09;10.70;99.90
10583;DHT22;33679;51.218;6.786;2024-02-26T15:25:42;10.70;99.90
10583;DHT22;33679;51.218;6.786;2024-02-26T15:28:14;10.70;99.90
10583;DHT22;33679;51.218;6.786;2024-02-26T15:30:49;10.70;99.90
10583;DHT22;33679;51.218;6.786;2024-02-26T15:33:21;10.70;99.90
10583;DHT22;33679;51.218;6.786;2024-02-26T15:35:55;10.80;99.90
10583;DHT22;33679;51.218;6.786;2024-02-26T15:38:28;10.70;99.90
10583;DHT22;33679;51.218;6.786;2024-02-26T15:41:00;10.70;99.90
10583;DHT22;33679;51.218;6.786;2024-02-26T15:43:33;10.70;99.90
10583;DHT22;33679;51.218;6.786;2024-02-26T15:46:07;10.70;99.90
10583;DHT22;33679;51.218;6.786;2024-02-26T15:48:40;10.70;99.90
10583;DHT22;33679;51.218;6.786;2024-02-26T15:51:21;10.70;99.90
10583;DHT22;33679;51.218;6.786;2024-02-26T15:53:55;10.60;99.90
10583;DHT22;33679;51.218;6.786;2024-02-26T15:56:27;10.60;99.90
10583;DHT22;33679;51.218;6.786;2024-02-26T15:59:01;10.60;99.90
10583;DHT22;33679;51.218;6.786;2024-02-26T16:01:35;10.60;99.90
10583;DHT22;33679;51.218;6.786;2024-02-26T16:04:07;10.60;99.90
10583;DHT22;33679;51.218;6.786;2024-02-26T16:06:42;10.60;99.90
10583;DHT22;33679;51.218;6.786;2024-02-26T16:09:17;10.60;99.90
10583;DHT22;33679;51.218;6.786;2024-02-26T16:11:53;10.60;99.90
10583;DHT22;33679;51.218;6.786;2024-02-26T16:14:46;10.50;99.90
10583;DHT22;33679;51.218;6.786;2024-02-26T16:17:24;10.60;99.90
10583;DHT22;33679;51.218;6.786;2024-02-26T16:19:57;10.60;99.90
10583;DHT22;33679;51.218;6.786;2024-02-26T16:22:31;10.60;99.90